KSHR/SHR METAR and TAF weather

Enter ICAO airport designator
Station Type Date Time Source
KSHR METAR 2019/09/21 03:53 UTC NOAA

KSHR 210353Z AUTO 28007KT 10SM FEW036 BKN048 09/07 A2993 RMK AO2 SLP123 T00940067


Station Type Date Time Source
KSHR Decoded METAR 2019/09/21 03:53 UTC NOAA

SHERIDAN COUNTY AIRPORT, WY, United States (KSHR) 44-46N 106-58W 1202M
Sep 20, 2019 - 11:53 PM EDT / 2019.09.21 0353 UTC
Wind: from the W (280 degrees) at 8 MPH (7 KT):0
Visibility: 10 mile(s):0
Sky conditions: mostly cloudy
Temperature: 48.9 F (9.4 C)
Dew Point: 44.1 F (6.7 C)
Relative Humidity: 83%
Pressure (altimeter): 29.93 in. Hg (1013 hPa)
ob: KSHR 210353Z AUTO 28007KT 10SM FEW036 BKN048 09/07 A2993 RMK AO2 SLP123 T00940067
cycle: 4

Station Type Date Time Source
KSHR TAF 2019/09/20 22:06 UTC NOAA

TAF
AMD KSHR 202203Z 2022/2118 03004KT P6SM VCTS OVC040CB
TEMPO 2022/2024 VRB20G35KT 3SM -TSRA OVC020CB
FM210500 32020G30KT 4SM -RA OVC020
FM211500 33015G25KT 4SM -RA VCSH OVC015

Example: see airport list